Time;durP1;ratioP1;P1;durP2;ratioP2;P2;SDS_P1;SDS_P2;PMS_P1;PMS_P2;Temp;Humidity;BMP_temperature;BMP_pressure;BME280_temperature;BME280_humidity;BME280_pressure;Samples;Min_cycle;Max_cycle;Signal;HPM_P1;HPM_P2
2023/05/24 00:01:51;;;;;;;5.50;5.00;;;16.90;96.20;;;;;;10479629;28;20324;-85
2023/05/24 00:06:54;;;;;;;5.33;4.83;;;16.90;96.00;;;;;;10445028;28;20708;-85
2023/05/24 00:11:58;;;;;;;6.30;5.80;;;16.90;95.90;;;;;;10498031;28;20317;-85
2023/05/24 00:17:00;;;;;;;5.63;5.10;;;16.90;96.50;;;;;;10438420;28;20655;-82
2023/05/24 00:22:02;;;;;;;5.07;4.67;;;16.90;96.30;;;;;;10444245;28;20237;-85
2023/05/24 00:27:06;;;;;;;8.50;5.40;;;16.90;96.60;;;;;;10481107;28;20221;-85
2023/05/24 00:32:08;;;;;;;5.40;5.00;;;16.90;96.30;;;;;;10427039;28;20283;-85
2023/05/24 00:37:12;;;;;;;5.60;5.13;;;16.90;95.90;;;;;;10433824;28;20305;-85
2023/05/24 00:42:15;;;;;;;6.60;5.10;;;16.80;96.00;;;;;;10438653;28;20655;-85
2023/05/24 00:47:17;;;;;;;5.37;4.80;;;16.80;96.30;;;;;;10528700;28;20209;-83
2023/05/24 00:52:21;;;;;;;5.87;5.47;;;16.70;97.00;;;;;;10477083;28;20214;-83
2023/05/24 00:57:26;;;;;;;6.67;5.20;;;16.70;96.40;;;;;;10466321;28;20535;-86
2023/05/24 01:02:28;;;;;;;7.73;5.27;;;16.70;95.90;;;;;;10437844;28;20231;-85
2023/05/24 01:07:37;;;;;;;5.30;4.80;;;16.70;96.10;;;;;;10423323;28;20685;-86
2023/05/24 01:12:52;;;;;;;6.00;4.97;;;16.70;95.40;;;;;;10463775;28;20260;-85
2023/05/24 01:18:01;;;;;;;6.30;5.57;;;16.70;94.60;;;;;;10423087;28;20240;-85
2023/05/24 01:23:14;;;;;;;5.73;5.23;;;16.60;93.50;;;;;;10470426;28;20569;-86
2023/05/24 01:28:18;;;;;;;6.00;5.50;;;16.60;94.10;;;;;;10460462;28;20328;-85
2023/05/24 01:33:21;;;;;;;9.70;5.60;;;16.50;94.30;;;;;;10423126;28;20252;-85
2023/05/24 01:38:23;;;;;;;6.30;5.10;;;16.50;94.40;;;;;;10488362;28;20194;-86
2023/05/24 01:43:34;;;;;;;7.80;5.10;;;16.50;92.80;;;;;;10441428;28;20228;-85
2023/05/24 01:48:47;;;;;;;9.80;5.60;;;16.50;93.20;;;;;;10459276;28;20198;-85
2023/05/24 01:53:52;;;;;;;6.83;5.63;;;16.40;93.20;;;;;;10426393;28;20217;-86
2023/05/24 01:58:57;;;;;;;7.50;4.87;;;16.40;94.20;;;;;;10444038;28;20204;-85
2023/05/24 02:03:59;;;;;;;6.10;5.50;;;16.40;93.40;;;;;;10474496;28;20209;-85
2023/05/24 02:09:02;;;;;;;10.03;5.50;;;16.30;93.40;;;;;;10429813;28;20194;-86
2023/05/24 02:14:05;;;;;;;7.77;5.00;;;16.30;94.10;;;;;;10425389;28;20681;-85
2023/05/24 02:19:07;;;;;;;12.93;5.50;;;16.30;94.20;;;;;;10458115;28;20189;-84
2023/05/24 02:24:10;;;;;;;5.87;5.07;;;16.30;92.60;;;;;;10458164;28;20213;-85
2023/05/24 02:29:13;;;;;;;5.73;5.10;;;16.20;93.10;;;;;;10443486;28;20204;-85
2023/05/24 02:34:15;;;;;;;8.43;5.53;;;16.20;93.20;;;;;;10446567;28;21417;-86
2023/05/24 02:39:17;;;;;;;7.87;5.53;;;16.10;92.50;;;;;;10458097;28;20212;-86
2023/05/24 02:44:21;;;;;;;7.03;5.23;;;16.10;94.10;;;;;;10438588;28;20217;-86
2023/05/24 02:49:23;;;;;;;6.83;5.40;;;16.10;93.10;;;;;;10439480;28;20202;-84
2023/05/24 02:54:25;;;;;;;8.10;5.50;;;16.00;94.10;;;;;;10460974;28;20292;-84
2023/05/24 02:59:30;;;;;;;5.73;5.10;;;16.00;93.80;;;;;;10437059;28;20613;-84
2023/05/24 03:04:32;;;;;;;7.70;5.50;;;16.00;93.00;;;;;;10432730;28;20241;-84
2023/05/24 03:09:34;;;;;;;5.70;5.17;;;16.00;93.90;;;;;;10435755;28;20657;-84
2023/05/24 03:14:37;;;;;;;8.50;5.83;;;16.00;94.20;;;;;;10436796;28;20194;-84
2023/05/24 03:19:40;;;;;;;7.83;5.90;;;15.90;94.20;;;;;;10437142;28;20209;-84
2023/05/24 03:24:42;;;;;;;6.80;5.50;;;15.90;94.30;;;;;;10458684;28;20217;-84
2023/05/24 03:29:48;;;;;;;6.40;5.80;;;15.90;93.80;;;;;;10395397;28;20214;-84
2023/05/24 03:34:51;;;;;;;8.77;5.37;;;15.90;93.20;;;;;;10422274;28;20233;-84
2023/05/24 03:39:54;;;;;;;7.87;6.37;;;15.80;93.60;;;;;;10470564;28;20229;-84
2023/05/24 03:45:25;;;;;;;7.87;6.10;;;15.70;93.20;;;;;;10384328;28;20276;-85
2023/05/24 03:50:27;;;;;;;8.13;6.53;;;15.70;93.80;;;;;;10478195;28;20232;-84
2023/05/24 03:55:29;;;;;;;8.27;6.17;;;15.70;93.90;;;;;;10452320;28;20194;-84
2023/05/24 04:00:33;;;;;;;7.50;6.07;;;15.70;94.10;;;;;;10460224;28;20258;-85
2023/05/24 04:05:37;;;;;;;7.30;6.57;;;15.60;94.10;;;;;;10446889;28;20312;-84
2023/05/24 04:10:39;;;;;;;10.33;6.17;;;15.70;94.00;;;;;;10427743;28;20222;-85
2023/05/24 04:15:43;;;;;;;9.63;6.57;;;15.60;94.10;;;;;;10455335;28;20198;-84
2023/05/24 04:20:45;;;;;;;7.43;6.30;;;15.60;92.80;;;;;;10479536;28;20226;-85
2023/05/24 04:25:47;;;;;;;8.87;6.17;;;15.60;94.00;;;;;;10440870;28;20748;-85
2023/05/24 04:30:52;;;;;;;10.20;6.27;;;15.50;94.10;;;;;;10426863;28;20222;-85
2023/05/24 04:35:54;;;;;;;6.67;6.00;;;15.50;94.60;;;;;;10436828;28;20190;-85
2023/05/24 04:40:57;;;;;;;6.80;6.10;;;15.50;94.50;;;;;;10481717;28;20304;-85
2023/05/24 04:46:01;;;;;;;7.63;5.40;;;15.50;94.50;;;;;;10424578;28;20225;-85
2023/05/24 04:51:03;;;;;;;6.60;6.00;;;15.50;94.50;;;;;;10437015;28;20230;-85
2023/05/24 04:56:05;;;;;;;8.03;5.40;;;15.50;93.60;;;;;;10485989;28;20221;-85
2023/05/24 05:01:08;;;;;;;7.97;6.13;;;15.50;92.90;;;;;;10400938;28;20250;-85
2023/05/24 05:06:10;;;;;;;9.97;5.90;;;15.50;94.30;;;;;;10459865;28;20298;-85
2023/05/24 05:11:14;;;;;;;6.57;5.43;;;15.50;93.90;;;;;;10482800;28;20305;-85
2023/05/24 05:16:17;;;;;;;9.43;5.40;;;15.50;92.90;;;;;;10491557;28;20213;-84
2023/05/24 05:21:20;;;;;;;8.93;5.73;;;15.50;93.90;;;;;;10461126;28;20246;-85
2023/05/24 05:26:22;;;;;;;6.00;5.43;;;15.50;94.40;;;;;;10450595;28;20245;-84
2023/05/24 05:31:25;;;;;;;8.00;5.67;;;15.50;94.30;;;;;;10423785;28;20219;-85
2023/05/24 05:36:27;;;;;;;12.43;5.93;;;15.60;94.40;;;;;;10454113;28;20194;-85
2023/05/24 05:41:29;;;;;;;6.57;5.70;;;15.60;94.10;;;;;;10462779;28;20227;-84
2023/05/24 05:46:33;;;;;;;6.40;5.57;;;15.70;93.10;;;;;;10463351;28;20221;-85
2023/05/24 05:51:35;;;;;;;9.03;6.43;;;15.70;94.10;;;;;;10462590;28;20257;-85
2023/05/24 05:56:43;;;;;;;8.03;5.83;;;15.70;94.10;;;;;;10420958;28;20201;-85
2023/05/24 06:01:47;;;;;;;7.73;5.50;;;15.80;93.30;;;;;;10457845;28;20227;-85
2023/05/24 06:06:50;;;;;;;8.77;6.20;;;15.80;94.00;;;;;;10424889;28;20230;-85
2023/05/24 06:11:52;;;;;;;10.73;6.50;;;15.90;94.60;;;;;;10493058;28;20724;-85
2023/05/24 06:16:56;;;;;;;15.07;5.87;;;15.90;94.20;;;;;;10464121;28;20197;-85
2023/05/24 06:21:58;;;;;;;7.80;5.00;;;16.00;94.00;;;;;;10427308;28;20586;-85
2023/05/24 06:27:00;;;;;;;14.10;6.00;;;16.10;93.90;;;;;;10456303;28;20224;-84
2023/05/24 06:32:04;;;;;;;11.37;5.97;;;16.30;93.60;;;;;;10449703;28;20272;-85
2023/05/24 06:37:09;;;;;;;8.03;5.40;;;16.50;93.60;;;;;;10422726;28;20256;-84
2023/05/24 06:42:11;;;;;;;7.37;5.80;;;16.60;94.00;;;;;;10438938;28;20272;-84
2023/05/24 06:47:14;;;;;;;11.70;5.90;;;16.60;91.60;;;;;;10420512;28;20304;-85
2023/05/24 06:52:16;;;;;;;8.07;5.57;;;16.60;91.90;;;;;;10454848;28;20256;-84
2023/05/24 06:57:18;;;;;;;10.23;5.60;;;16.50;92.60;;;;;;10427514;28;20230;-84
2023/05/24 07:02:26;;;;;;;16.40;5.27;;;16.50;92.80;;;;;;10453656;28;20311;-84
2023/05/24 07:07:28;;;;;;;10.73;6.50;;;16.40;92.70;;;;;;10427613;28;20312;-84
2023/05/24 07:12:31;;;;;;;8.83;5.90;;;16.30;92.70;;;;;;10453438;28;20653;-84
2023/05/24 07:17:34;;;;;;;6.60;5.50;;;16.20;93.30;;;;;;10443736;28;20202;-83
2023/05/24 07:22:36;;;;;;;7.30;5.60;;;16.20;92.40;;;;;;10460365;28;20222;-84
2023/05/24 07:27:39;;;;;;;11.37;6.00;;;16.10;93.20;;;;;;10451016;28;20225;-85
2023/05/24 07:32:42;;;;;;;8.80;5.17;;;16.10;93.20;;;;;;10433676;28;20751;-84
2023/05/24 07:37:44;;;;;;;13.73;5.10;;;16.10;92.80;;;;;;10446908;28;20206;-85
2023/05/24 07:42:47;;;;;;;8.60;5.47;;;16.10;93.80;;;;;;10455933;28;20224;-84
2023/05/24 07:47:51;;;;;;;9.03;5.90;;;16.10;93.00;;;;;;10441786;28;20214;-85
2023/05/24 07:52:53;;;;;;;8.90;5.43;;;16.20;92.40;;;;;;10447152;28;20280;-85
2023/05/24 07:57:55;;;;;;;7.73;5.37;;;16.40;93.80;;;;;;10473893;28;20193;-85
2023/05/24 08:02:58;;;;;;;8.90;5.93;;;16.60;92.50;;;;;;10454488;28;20210;-85
2023/05/24 08:08:01;;;;;;;8.40;5.13;;;16.70;92.50;;;;;;10456213;28;20225;-85
2023/05/24 08:13:04;;;;;;;10.13;5.97;;;16.80;92.90;;;;;;10436814;28;20252;-85
2023/05/24 08:18:08;;;;;;;7.83;5.60;;;16.90;92.90;;;;;;10442104;28;20193;-84
2023/05/24 08:23:10;;;;;;;10.13;6.03;;;17.00;92.00;;;;;;10471765;28;20223;-85
2023/05/24 08:28:12;;;;;;;8.87;5.67;;;17.00;92.00;;;;;;10437433;28;20222;-85
2023/05/24 08:33:16;;;;;;;8.57;5.70;;;16.90;91.80;;;;;;10468025;28;20217;-85
2023/05/24 08:38:18;;;;;;;10.50;5.50;;;16.90;91.50;;;;;;10456462;28;20539;-85
2023/05/24 08:43:22;;;;;;;6.13;5.57;;;16.80;91.50;;;;;;10438660;28;20726;-84
2023/05/24 08:48:28;;;;;;;7.77;5.43;;;16.80;92.90;;;;;;10471648;28;20222;-83
2023/05/24 08:53:32;;;;;;;8.10;5.43;;;16.90;91.90;;;;;;10477167;28;20232;-83
2023/05/24 08:58:34;;;;;;;13.13;5.90;;;16.90;92.20;;;;;;10458200;28;20222;-83
2023/05/24 09:03:39;;;;;;;6.90;5.43;;;16.90;93.00;;;;;;10490945;28;20221;-84
2023/05/24 09:08:43;;;;;;;9.47;5.57;;;17.00;92.70;;;;;;10480613;28;20321;-84
2023/05/24 09:13:46;;;;;;;8.90;5.33;;;17.10;93.10;;;;;;10480142;28;20242;-84
2023/05/24 09:18:49;;;;;;;8.43;6.07;;;17.10;92.60;;;;;;10467488;28;20197;-84
2023/05/24 09:23:52;;;;;;;7.13;4.97;;;17.10;92.30;;;;;;10473132;28;20267;-84
2023/05/24 09:28:56;;;;;;;12.17;6.07;;;17.00;92.40;;;;;;10467957;28;20228;-84
2023/05/24 09:33:59;;;;;;;9.30;5.60;;;16.90;91.80;;;;;;10491717;28;20231;-83
2023/05/24 09:39:08;;;;;;;10.90;5.80;;;16.90;92.40;;;;;;10495040;28;20193;-84
2023/05/24 09:44:14;;;;;;;6.87;5.53;;;16.90;91.30;;;;;;10477398;28;20225;-83
2023/05/24 09:49:20;;;;;;;13.20;5.40;;;17.00;92.40;;;;;;10440187;28;20222;-83
2023/05/24 09:54:24;;;;;;;9.67;5.87;;;17.10;92.30;;;;;;10468822;28;20282;-83
2023/05/24 09:59:27;;;;;;;11.57;5.70;;;17.20;90.90;;;;;;10474491;28;20198;-83
2023/05/24 10:04:34;;;;;;;10.03;6.80;;;17.10;91.10;;;;;;10446364;28;20201;-83
2023/05/24 10:09:36;;;;;;;12.83;5.90;;;17.10;91.40;;;;;;10456135;28;20276;-83
2023/05/24 10:14:39;;;;;;;10.93;6.30;;;16.90;92.10;;;;;;10464821;28;20197;-83
2023/05/24 10:19:42;;;;;;;11.90;6.33;;;16.90;92.10;;;;;;10460358;28;20304;-83
2023/05/24 10:24:47;;;;;;;6.13;5.53;;;16.80;92.30;;;;;;10447961;28;20674;-83
2023/05/24 10:29:59;;;;;;;7.63;6.57;;;16.70;91.50;;;;;;10434796;28;20309;-83
2023/05/24 10:35:04;;;;;;;9.83;6.60;;;16.60;90.70;;;;;;10440119;28;20201;-83
2023/05/24 10:40:08;;;;;;;10.70;5.80;;;16.50;92.10;;;;;;10425237;28;20220;-83
2023/05/24 10:45:31;;;;;;;6.57;5.27;;;16.50;92.40;;;;;;10449684;28;20209;-83
2023/05/24 10:50:35;;;;;;;6.90;5.60;;;16.50;91.70;;;;;;10425330;28;20321;-83
2023/05/24 10:55:51;;;;;;;10.80;6.13;;;16.50;90.30;;;;;;10469581;28;20534;-83
2023/05/24 11:00:54;;;;;;;9.50;6.10;;;16.60;91.70;;;;;;10463879;28;20248;-84
2023/05/24 11:05:58;;;;;;;7.87;5.43;;;16.60;91.70;;;;;;10450045;28;20243;-83
2023/05/24 11:11:08;;;;;;;8.40;5.60;;;16.70;91.40;;;;;;10439687;28;20229;-83
2023/05/24 11:16:30;;;;;;;7.37;5.90;;;16.90;90.90;;;;;;10453283;28;20193;-83
2023/05/24 11:21:34;;;;;;;15.47;6.53;;;17.10;90.40;;;;;;10462435;28;20278;-83
2023/05/24 11:26:36;;;;;;;8.13;5.63;;;17.20;88.30;;;;;;10430961;28;20590;-83
2023/05/24 11:31:38;;;;;;;8.93;5.10;;;17.30;90.40;;;;;;10444591;28;20218;-83
2023/05/24 11:36:42;;;;;;;11.57;6.70;;;17.50;90.50;;;;;;10439553;28;20194;-83
2023/05/24 11:41:44;;;;;;;9.70;5.70;;;17.80;90.70;;;;;;10461605;28;20701;-83
2023/05/24 11:46:47;;;;;;;7.50;6.00;;;18.00;87.70;;;;;;10454150;28;20559;-83
2023/05/24 11:51:51;;;;;;;6.90;4.97;;;18.20;84.90;;;;;;10461309;28;20240;-83
2023/05/24 11:56:54;;;;;;;7.47;5.20;;;18.20;83.50;;;;;;10482172;28;20218;-83
2023/05/24 12:02:00;;;;;;;6.60;4.73;;;18.00;82.80;;;;;;10436815;28;20230;-83
2023/05/24 12:07:04;;;;;;;6.40;4.87;;;17.80;80.10;;;;;;10441346;28;20218;-83
2023/05/24 12:12:07;;;;;;;6.80;5.00;;;17.60;85.30;;;;;;10445244;28;20697;-83
2023/05/24 12:17:15;;;;;;;9.87;6.10;;;17.40;77.10;;;;;;10449029;28;20201;-83
2023/05/24 12:22:19;;;;;;;5.00;4.47;;;17.20;83.20;;;;;;10470061;28;20220;-83
2023/05/24 12:27:27;;;;;;;9.37;5.13;;;17.20;86.70;;;;;;10432773;28;20222;-83
2023/05/24 12:32:29;;;;;;;8.17;5.00;;;17.20;82.90;;;;;;10477678;28;20249;-83
2023/05/24 12:37:33;;;;;;;11.97;5.00;;;17.30;86.20;;;;;;10433357;28;20248;-83
2023/05/24 12:42:36;;;;;;;9.53;5.20;;;17.40;84.40;;;;;;10449734;28;20222;-84
2023/05/24 12:47:39;;;;;;;6.97;4.80;;;17.50;79.20;;;;;;10480114;28;20218;-84
2023/05/24 12:52:43;;;;;;;9.40;5.20;;;17.40;83.60;;;;;;10448315;28;20280;-83
2023/05/24 12:57:51;;;;;;;7.27;5.13;;;17.40;84.60;;;;;;10468095;28;20198;-84
2023/05/24 13:02:55;;;;;;;9.50;4.73;;;17.30;84.20;;;;;;10514950;28;20221;-82
2023/05/24 13:07:59;;;;;;;7.83;5.30;;;17.30;82.80;;;;;;10500912;28;20655;-84
2023/05/24 13:13:01;;;;;;;6.47;4.30;;;17.40;82.90;;;;;;10461540;28;20225;-84
2023/05/24 13:18:03;;;;;;;8.93;5.13;;;17.60;83.70;;;;;;10448351;28;20198;-84
2023/05/24 13:23:07;;;;;;;6.90;4.30;;;17.90;82.30;;;;;;10468318;28;20213;-84
2023/05/24 13:28:09;;;;;;;6.43;5.20;;;17.90;81.60;;;;;;10468453;28;20783;-84
2023/05/24 13:33:12;;;;;;;8.07;4.50;;;18.00;83.40;;;;;;10456533;28;20217;-84
2023/05/24 13:38:15;;;;;;;6.03;4.43;;;18.10;78.70;;;;;;10467134;28;20221;-83
2023/05/24 13:43:17;;;;;;;5.03;4.50;;;18.00;80.90;;;;;;10488814;28;20267;-84
2023/05/24 13:48:20;;;;;;;7.37;4.50;;;18.10;86.60;;;;;;10469610;28;20219;-84
2023/05/24 13:53:25;;;;;;;5.10;4.03;;;18.00;81.50;;;;;;10453502;28;20708;-83
2023/05/24 13:58:28;;;;;;;5.30;4.43;;;17.90;82.10;;;;;;10461947;28;20193;-84
2023/05/24 14:03:30;;;;;;;7.70;4.10;;;17.80;86.80;;;;;;10484732;28;20225;-84
2023/05/24 14:08:34;;;;;;;7.03;4.30;;;17.80;79.80;;;;;;10492884;28;20701;-84
2023/05/24 14:13:36;;;;;;;7.57;4.53;;;17.70;78.20;;;;;;10464876;28;20267;-84
2023/05/24 14:18:38;;;;;;;7.40;5.20;;;17.70;77.10;;;;;;10458030;28;20198;-84
2023/05/24 14:23:41;;;;;;;5.97;3.90;;;17.60;76.30;;;;;;10446904;28;20217;-83
2023/05/24 14:28:43;;;;;;;8.90;4.47;;;17.60;79.10;;;;;;10461537;28;20809;-84
2023/05/24 14:33:45;;;;;;;7.20;3.60;;;17.80;76.60;;;;;;10460634;28;20213;-84
2023/05/24 14:38:49;;;;;;;6.23;4.60;;;17.90;81.20;;;;;;10476128;28;20198;-84
2023/05/24 14:43:51;;;;;;;5.23;4.13;;;18.10;79.80;;;;;;10454080;28;20750;-84
2023/05/24 14:48:53;;;;;;;6.30;4.37;;;18.30;76.00;;;;;;10468380;28;20261;-84
2023/05/24 14:53:56;;;;;;;6.10;3.90;;;18.50;76.10;;;;;;10449717;28;20311;-84
2023/05/24 14:58:58;;;;;;;5.77;3.83;;;18.60;79.50;;;;;;10495989;28;20201;-84
2023/05/24 15:04:00;;;;;;;9.73;3.83;;;18.70;80.70;;;;;;10454471;28;20229;-84
2023/05/24 15:09:06;;;;;;;9.50;4.30;;;18.80;72.60;;;;;;10447339;28;20256;-84
2023/05/24 15:14:08;;;;;;;5.43;3.73;;;18.80;77.90;;;;;;10441419;28;20262;-83
2023/05/24 15:19:11;;;;;;;4.80;3.90;;;18.80;73.70;;;;;;10466683;28;20194;-84
2023/05/24 15:24:15;;;;;;;4.43;4.00;;;18.70;75.50;;;;;;10447755;28;20225;-84
2023/05/24 15:29:17;;;;;;;4.77;3.67;;;18.50;77.90;;;;;;10442801;28;20222;-82
2023/05/24 15:34:19;;;;;;;5.63;3.53;;;18.30;76.20;;;;;;10434346;28;20198;-83
2023/05/24 15:39:23;;;;;;;4.87;3.97;;;18.10;73.70;;;;;;10452019;28;20202;-83
2023/05/24 15:44:25;;;;;;;3.47;3.17;;;18.10;76.10;;;;;;10480040;28;20193;-83
2023/05/24 15:49:27;;;;;;;5.30;3.77;;;18.20;78.30;;;;;;10457113;28;20308;-83
2023/05/24 15:54:30;;;;;;;4.03;3.13;;;18.30;76.10;;;;;;10480884;28;20226;-82
2023/05/24 15:59:34;;;;;;;5.00;3.70;;;18.40;75.90;;;;;;10479786;28;20201;-83
2023/05/24 16:04:36;;;;;;;3.77;3.43;;;18.40;73.00;;;;;;10466882;28;20232;-82
2023/05/24 16:09:39;;;;;;;4.23;3.60;;;18.30;77.80;;;;;;10448517;28;20225;-83
2023/05/24 16:14:41;;;;;;;8.10;3.60;;;18.20;80.60;;;;;;10466127;28;20194;-84
2023/05/24 16:19:45;;;;;;;5.63;3.60;;;18.10;76.40;;;;;;10424291;28;20214;-85
2023/05/24 16:24:48;;;;;;;5.83;3.80;;;18.00;82.20;;;;;;10418210;28;20202;-85
2023/05/24 16:29:50;;;;;;;4.20;3.50;;;17.90;80.70;;;;;;10425999;28;20234;-86
2023/05/24 16:34:52;;;;;;;5.17;3.60;;;17.80;74.20;;;;;;10433085;28;20205;-85
2023/05/24 16:39:56;;;;;;;6.20;3.40;;;17.70;78.40;;;;;;10443740;28;20218;-86
2023/05/24 16:44:58;;;;;;;4.77;3.60;;;17.60;78.00;;;;;;10435217;28;20233;-85
2023/05/24 16:50:00;;;;;;;5.93;3.90;;;17.60;75.40;;;;;;10460518;28;20752;-85
2023/05/24 16:55:04;;;;;;;4.83;3.60;;;17.40;81.90;;;;;;10460005;28;20571;-85
2023/05/24 17:00:08;;;;;;;6.80;4.10;;;17.40;79.20;;;;;;10412152;28;20221;-86
2023/05/24 17:05:10;;;;;;;6.47;3.70;;;17.40;78.80;;;;;;10429266;28;20205;-88
2023/05/24 17:10:14;;;;;;;5.10;3.27;;;17.30;74.30;;;;;;10441919;28;20321;-85
2023/05/24 17:15:16;;;;;;;8.70;3.80;;;17.30;80.60;;;;;;10442152;28;20213;-86
2023/05/24 17:20:18;;;;;;;7.23;3.60;;;17.20;82.40;;;;;;10426815;28;20647;-86
2023/05/24 17:25:21;;;;;;;5.07;3.70;;;17.20;76.40;;;;;;10429066;28;20292;-86
2023/05/24 17:30:26;;;;;;;5.13;3.77;;;17.10;80.80;;;;;;10448858;28;20299;-85
2023/05/24 17:35:28;;;;;;;4.67;3.30;;;17.10;76.50;;;;;;10443699;28;20260;-84
2023/05/24 17:40:31;;;;;;;4.47;3.57;;;17.00;80.70;;;;;;10445164;28;20225;-84
2023/05/24 17:45:33;;;;;;;9.73;3.90;;;17.00;77.00;;;;;;10437488;28;20207;-85
2023/05/24 17:50:36;;;;;;;3.53;3.23;;;16.90;82.10;;;;;;10447140;28;20229;-85
2023/05/24 17:55:39;;;;;;;4.27;3.30;;;16.90;81.70;;;;;;10438896;28;20206;-84
2023/05/24 18:00:41;;;;;;;3.93;3.30;;;16.90;83.40;;;;;;10434168;28;20206;-83
2023/05/24 18:05:43;;;;;;;3.40;3.10;;;16.90;80.40;;;;;;10427236;28;20610;-84
2023/05/24 18:10:47;;;;;;;5.77;3.53;;;16.90;80.80;;;;;;10441139;28;20279;-85
2023/05/24 18:15:49;;;;;;;5.57;3.47;;;16.80;81.50;;;;;;10428583;28;20294;-83
2023/05/24 18:20:51;;;;;;;6.83;4.47;;;16.80;76.50;;;;;;10442865;28;20225;-83
2023/05/24 18:25:55;;;;;;;3.60;2.97;;;16.80;76.70;;;;;;10436841;28;20209;-83
2023/05/24 18:30:57;;;;;;;5.20;3.30;;;16.70;75.40;;;;;;10485289;28;20233;-83
2023/05/24 18:35:59;;;;;;;4.43;3.10;;;16.60;76.00;;;;;;10500661;28;20209;-83
2023/05/24 18:41:03;;;;;;;5.43;2.80;;;16.50;78.00;;;;;;10462290;28;20223;-83
2023/05/24 18:46:05;;;;;;;4.90;3.10;;;16.50;75.20;;;;;;10491566;28;20190;-83
2023/05/24 18:51:07;;;;;;;3.63;2.50;;;16.40;75.70;;;;;;10458781;28;20286;-83
2023/05/24 18:56:11;;;;;;;5.53;3.37;;;16.40;75.70;;;;;;10455707;28;20210;-84
2023/05/24 19:01:13;;;;;;;4.80;3.33;;;16.30;80.30;;;;;;10439397;28;20229;-83
2023/05/24 19:06:15;;;;;;;5.67;3.60;;;16.30;76.60;;;;;;10419175;28;20212;-83
2023/05/24 19:11:19;;;;;;;3.70;3.40;;;16.20;79.00;;;;;;10457055;28;20686;-82
2023/05/24 19:16:22;;;;;;;3.47;3.17;;;16.20;80.30;;;;;;10447190;28;20186;-82
2023/05/24 19:21:24;;;;;;;4.17;3.40;;;16.00;80.70;;;;;;10478037;28;20213;-81
2023/05/24 19:26:27;;;;;;;4.00;3.53;;;16.00;79.70;;;;;;10442650;28;20217;-82
2023/05/24 19:31:34;;;;;;;5.43;4.40;;;15.80;79.40;;;;;;10476724;28;20410;-82
2023/05/24 19:36:36;;;;;;;4.43;3.93;;;15.70;79.40;;;;;;10448582;28;20292;-83
2023/05/24 19:41:39;;;;;;;4.07;3.60;;;15.60;81.40;;;;;;10437418;28;20582;-83
2023/05/24 19:46:42;;;;;;;3.67;3.37;;;15.40;80.70;;;;;;10421812;28;20232;-84
2023/05/24 19:51:44;;;;;;;4.00;3.67;;;15.30;81.80;;;;;;10438593;28;20236;-84
2023/05/24 19:56:49;;;;;;;4.37;3.83;;;15.20;80.40;;;;;;10438968;28;20241;-85
2023/05/24 20:01:51;;;;;;;4.23;3.20;;;15.10;79.60;;;;;;10456294;28;20701;-85
2023/05/24 20:06:53;;;;;;;3.20;2.73;;;15.00;77.70;;;;;;10422537;28;20256;-84
2023/05/24 20:11:57;;;;;;;3.73;3.43;;;14.80;79.50;;;;;;10466741;28;20244;-84
2023/05/24 20:16:59;;;;;;;4.93;3.57;;;14.70;78.40;;;;;;10446786;28;20189;-85
2023/05/24 20:22:02;;;;;;;3.77;3.37;;;14.60;78.80;;;;;;10440028;28;20308;-85
2023/05/24 20:27:06;;;;;;;4.10;3.17;;;14.50;78.30;;;;;;10430330;28;20678;-85
2023/05/24 20:32:08;;;;;;;3.30;2.97;;;14.40;77.30;;;;;;10456782;28;20615;-85
2023/05/24 20:37:10;;;;;;;3.73;3.43;;;14.30;80.00;;;;;;10441693;28;20197;-85
2023/05/24 20:42:13;;;;;;;4.90;3.80;;;14.30;79.90;;;;;;10441276;28;20217;-85
2023/05/24 20:47:17;;;;;;;4.80;3.00;;;14.20;79.50;;;;;;10469724;28;20308;-84
2023/05/24 20:52:19;;;;;;;3.83;3.53;;;14.20;80.20;;;;;;10453262;28;20279;-84
2023/05/24 20:57:23;;;;;;;5.73;3.70;;;14.10;78.40;;;;;;10428954;28;20201;-84
2023/05/24 21:02:27;;;;;;;3.63;3.43;;;14.10;76.30;;;;;;10500587;22;20234;-85
2023/05/24 21:07:29;;;;;;;3.37;3.07;;;14.00;79.30;;;;;;10450093;28;20601;-84
2023/05/24 21:12:32;;;;;;;3.10;2.77;;;14.00;76.40;;;;;;10462544;28;20227;-85
2023/05/24 21:17:34;;;;;;;5.67;3.50;;;13.90;79.80;;;;;;10453263;28;20228;-85
2023/05/24 21:22:37;;;;;;;2.90;2.70;;;13.90;80.30;;;;;;10433403;28;20666;-87
2023/05/24 21:27:40;;;;;;;7.43;3.40;;;13.90;80.60;;;;;;10400659;28;20372;-87
2023/05/24 21:32:42;;;;;;;4.77;3.50;;;13.90;78.80;;;;;;10427068;28;20229;-86
2023/05/24 21:37:45;;;;;;;3.50;3.00;;;13.90;81.30;;;;;;10416209;28;20271;-87
2023/05/24 21:42:48;;;;;;;4.53;3.30;;;13.90;83.00;;;;;;10428470;28;20260;-87
2023/05/24 21:47:50;;;;;;;3.03;2.83;;;13.90;79.80;;;;;;10472748;28;20213;-84
2023/05/24 21:52:52;;;;;;;3.70;3.40;;;13.90;81.70;;;;;;10465272;28;20252;-85
2023/05/24 21:57:56;;;;;;;6.03;3.20;;;14.00;82.70;;;;;;10458677;28;20267;-85
2023/05/24 22:02:58;;;;;;;3.47;2.97;;;14.10;81.70;;;;;;10450357;28;20236;-85
2023/05/24 22:08:00;;;;;;;2.50;2.17;;;14.10;82.80;;;;;;10434377;28;20301;-85
2023/05/24 22:13:04;;;;;;;4.60;3.50;;;14.20;84.20;;;;;;10413669;28;20257;-85
2023/05/24 22:18:07;;;;;;;5.70;3.80;;;14.30;82.40;;;;;;10448291;28;20198;-84
2023/05/24 22:23:10;;;;;;;4.90;3.47;;;14.30;81.20;;;;;;10466911;28;20222;-85
2023/05/24 22:28:14;;;;;;;6.03;3.40;;;14.40;84.40;;;;;;10412721;28;20713;-86
2023/05/24 22:33:16;;;;;;;5.53;3.50;;;14.40;84.90;;;;;;10419844;28;20249;-86
2023/05/24 22:38:18;;;;;;;6.33;3.60;;;14.40;83.10;;;;;;10396866;28;20659;-86
2023/05/24 22:43:22;;;;;;;3.43;3.13;;;14.40;84.30;;;;;;10429228;28;20225;-87
2023/05/24 22:48:25;;;;;;;4.50;4.10;;;14.40;86.00;;;;;;10443799;28;20553;-87
2023/05/24 22:53:27;;;;;;;5.50;4.00;;;14.40;86.00;;;;;;10401644;28;20272;-87
2023/05/24 22:58:31;;;;;;;5.60;4.10;;;14.30;86.00;;;;;;10447720;28;20225;-87
2023/05/24 23:03:33;;;;;;;5.20;3.90;;;14.30;86.60;;;;;;10440612;28;20356;-86
2023/05/24 23:08:36;;;;;;;4.10;3.33;;;14.20;86.00;;;;;;10447813;28;20283;-86
2023/05/24 23:13:40;;;;;;;5.03;3.97;;;14.20;86.90;;;;;;10422838;28;20222;-86
2023/05/24 23:18:43;;;;;;;6.20;4.47;;;14.20;85.90;;;;;;10457157;28;20304;-84
2023/05/24 23:23:45;;;;;;;7.97;4.07;;;14.10;87.30;;;;;;10407216;28;20215;-84
2023/05/24 23:28:48;;;;;;;5.53;3.93;;;13.90;87.00;;;;;;10458763;28;20221;-85
2023/05/24 23:33:51;;;;;;;3.77;3.23;;;13.90;88.80;;;;;;10432126;28;20244;-84
2023/05/24 23:38:53;;;;;;;3.90;3.50;;;13.80;88.80;;;;;;10464019;28;20228;-85
2023/05/24 23:43:56;;;;;;;4.40;3.53;;;13.80;88.90;;;;;;10468925;28;20283;-86
2023/05/24 23:48:58;;;;;;;5.90;4.43;;;13.70;86.80;;;;;;10414832;28;20650;-85
2023/05/24 23:54:00;;;;;;;7.90;4.40;;;13.70;87.30;;;;;;10418963;28;20222;-87
2023/05/24 23:59:04;;;;;;;5.20;4.13;;;13.70;88.10;;;;;;10403238;28;20210;-87
